Flight Information

DEPARTURE
SAN DIEGO, CA
Elevation:
526
Runways:
8R/26L - 3185x75 - ASPH-G
8L/26R - 7972x150 - ASPH-CONC-G
ATIS:
132.35 619-661-0152
Clearance Delivery:
124.4
Ground:
124.4
Tower:
128.25
DESTINATION
,
Elevation:
TPA:
1000 (est.)


6748.4 NM75° True-13° Var61° HDG

Flight Plan:
(click to file on line)

1. Type
2. Aircraft Identification
3. Aircraft Type / Special Equipment
4. True Airspeed
kts
5. Departure Airport
(ICAO code)
6. Arriving Airport
(ICAO code)
7. Cruising Altitude
ft
8. Alternate Airport
(ICAO code)
9. Route of Flight
10. Remarks


00:00:00 Departure ATIS: Destination ATIS:

Clearance Limit:
Route:
Altitude: Expect in minutes
Frequency:
Transponder: (7500 Hijack / 7600 Lost Comms / 7700 Emergency)


KSDM 010653Z AUTO 10005KT 10SM CLR 11/09 A2989 RMK AO2 SLP120 T01110094
Time: 2020-04-01T06:53:00Z
1585726056
Winds: 100 @ 5 kts
Visibility: 10.0 sm
Clouds (AGL): CLR
Temperature: 11.1 C
Dew Point: 9.4 C
Pressure: 29.890747 in Hgbr


Notes:

Data extracted from FAA Digital Chart Supplement. Effective: 0901Z Thursday, Mar 26, 2020 to 0901Z Thursday, May 21, 2020
Current ATIS data is provided courtisy of PilotEdge.